sensor_id;sensor_type;location;lat;lon;timestamp;P1;durP1;ratioP1;P2;durP2;ratioP2
7177;SDS011;3630;42.146;24.756;2022-11-15T00:00:44;41.80;;;33.10;;
7177;SDS011;3630;42.146;24.756;2022-11-15T00:03:12;46.95;;;36.15;;
7177;SDS011;3630;42.146;24.756;2022-11-15T00:05:40;47.27;;;33.53;;
7177;SDS011;3630;42.146;24.756;2022-11-15T00:08:06;45.80;;;33.13;;
7177;SDS011;3630;42.146;24.756;2022-11-15T00:10:33;46.13;;;32.30;;
7177;SDS011;3630;42.146;24.756;2022-11-15T00:13:03;46.23;;;30.67;;
7177;SDS011;3630;42.146;24.756;2022-11-15T00:15:31;43.83;;;30.77;;
7177;SDS011;3630;42.146;24.756;2022-11-15T00:18:01;42.47;;;29.63;;
7177;SDS011;3630;42.146;24.756;2022-11-15T00:20:28;42.43;;;29.90;;
7177;SDS011;3630;42.146;24.756;2022-11-15T00:22:55;40.77;;;29.50;;
7177;SDS011;3630;42.146;24.756;2022-11-15T00:25:22;39.30;;;29.17;;
7177;SDS011;3630;42.146;24.756;2022-11-15T00:27:49;40.93;;;30.17;;
7177;SDS011;3630;42.146;24.756;2022-11-15T00:30:16;41.90;;;29.60;;
7177;SDS011;3630;42.146;24.756;2022-11-15T00:32:43;44.17;;;31.90;;
7177;SDS011;3630;42.146;24.756;2022-11-15T00:35:11;41.70;;;29.43;;
7177;SDS011;3630;42.146;24.756;2022-11-15T00:37:38;40.60;;;30.33;;
7177;SDS011;3630;42.146;24.756;2022-11-15T00:40:06;36.00;;;27.87;;
7177;SDS011;3630;42.146;24.756;2022-11-15T00:42:34;39.00;;;27.17;;
7177;SDS011;3630;42.146;24.756;2022-11-15T00:45:01;41.33;;;33.23;;
7177;SDS011;3630;42.146;24.756;2022-11-15T00:47:28;38.27;;;28.60;;
7177;SDS011;3630;42.146;24.756;2022-11-15T00:49:54;42.60;;;28.30;;
7177;SDS011;3630;42.146;24.756;2022-11-15T00:52:23;36.27;;;27.00;;
7177;SDS011;3630;42.146;24.756;2022-11-15T00:54:49;42.10;;;31.23;;
7177;SDS011;3630;42.146;24.756;2022-11-15T00:57:16;38.60;;;27.77;;
7177;SDS011;3630;42.146;24.756;2022-11-15T00:59:43;40.20;;;28.90;;
7177;SDS011;3630;42.146;24.756;2022-11-15T01:02:10;41.60;;;29.23;;
7177;SDS011;3630;42.146;24.756;2022-11-15T01:04:37;38.80;;;28.33;;
7177;SDS011;3630;42.146;24.756;2022-11-15T01:07:04;39.53;;;29.70;;
7177;SDS011;3630;42.146;24.756;2022-11-15T01:09:32;41.70;;;29.60;;
7177;SDS011;3630;42.146;24.756;2022-11-15T01:11:59;38.07;;;29.47;;
7177;SDS011;3630;42.146;24.756;2022-11-15T01:14:26;40.10;;;29.67;;
7177;SDS011;3630;42.146;24.756;2022-11-15T01:16:52;37.40;;;28.47;;
7177;SDS011;3630;42.146;24.756;2022-11-15T01:19:19;41.07;;;29.70;;
7177;SDS011;3630;42.146;24.756;2022-11-15T01:21:48;39.13;;;28.93;;
7177;SDS011;3630;42.146;24.756;2022-11-15T01:24:15;38.63;;;29.07;;
7177;SDS011;3630;42.146;24.756;2022-11-15T01:26:43;45.03;;;35.75;;
7177;SDS011;3630;42.146;24.756;2022-11-15T01:29:10;43.10;;;32.13;;
7177;SDS011;3630;42.146;24.756;2022-11-15T01:31:37;38.60;;;30.10;;
7177;SDS011;3630;42.146;24.756;2022-11-15T01:34:04;44.90;;;31.73;;
7177;SDS011;3630;42.146;24.756;2022-11-15T01:36:31;43.08;;;31.15;;
7177;SDS011;3630;42.146;24.756;2022-11-15T01:38:58;41.47;;;30.83;;
7177;SDS011;3630;42.146;24.756;2022-11-15T01:41:26;44.77;;;29.60;;
7177;SDS011;3630;42.146;24.756;2022-11-15T01:43:56;41.73;;;29.43;;
7177;SDS011;3630;42.146;24.756;2022-11-15T01:46:26;37.53;;;27.67;;
7177;SDS011;3630;42.146;24.756;2022-11-15T01:48:56;38.03;;;28.50;;
7177;SDS011;3630;42.146;24.756;2022-11-15T01:51:26;38.80;;;29.27;;
7177;SDS011;3630;42.146;24.756;2022-11-15T01:53:59;39.87;;;29.03;;
7177;SDS011;3630;42.146;24.756;2022-11-15T01:56:28;37.70;;;28.20;;
7177;SDS011;3630;42.146;24.756;2022-11-15T01:59:00;42.80;;;28.50;;
7177;SDS011;3630;42.146;24.756;2022-11-15T02:01:30;37.63;;;28.60;;
7177;SDS011;3630;42.146;24.756;2022-11-15T02:03:59;38.83;;;27.70;;
7177;SDS011;3630;42.146;24.756;2022-11-15T02:06:31;40.03;;;28.63;;
7177;SDS011;3630;42.146;24.756;2022-11-15T02:08:58;41.95;;;32.08;;
7177;SDS011;3630;42.146;24.756;2022-11-15T02:11:44;38.43;;;29.43;;
7177;SDS011;3630;42.146;24.756;2022-11-15T02:14:15;40.93;;;29.37;;
7177;SDS011;3630;42.146;24.756;2022-11-15T02:16:49;42.27;;;29.47;;
7177;SDS011;3630;42.146;24.756;2022-11-15T02:19:28;40.90;;;28.23;;
7177;SDS011;3630;42.146;24.756;2022-11-15T02:22:15;36.17;;;27.13;;
7177;SDS011;3630;42.146;24.756;2022-11-15T02:25:03;39.03;;;28.27;;
7177;SDS011;3630;42.146;24.756;2022-11-15T02:27:52;38.67;;;28.40;;
7177;SDS011;3630;42.146;24.756;2022-11-15T02:30:33;40.30;;;27.77;;
7177;SDS011;3630;42.146;24.756;2022-11-15T02:33:10;41.47;;;28.50;;
7177;SDS011;3630;42.146;24.756;2022-11-15T02:35:50;42.57;;;28.57;;
7177;SDS011;3630;42.146;24.756;2022-11-15T02:38:27;39.30;;;27.63;;
7177;SDS011;3630;42.146;24.756;2022-11-15T02:41:01;39.47;;;26.33;;
7177;SDS011;3630;42.146;24.756;2022-11-15T02:43:33;37.07;;;25.67;;
7177;SDS011;3630;42.146;24.756;2022-11-15T02:46:27;40.10;;;27.63;;
7177;SDS011;3630;42.146;24.756;2022-11-15T02:49:17;38.03;;;26.43;;
7177;SDS011;3630;42.146;24.756;2022-11-15T02:51:45;40.40;;;31.03;;
7177;SDS011;3630;42.146;24.756;2022-11-15T02:54:15;34.73;;;26.43;;
7177;SDS011;3630;42.146;24.756;2022-11-15T02:56:46;37.13;;;27.57;;
7177;SDS011;3630;42.146;24.756;2022-11-15T03:02:22;39.72;;;31.50;;
7177;SDS011;3630;42.146;24.756;2022-11-15T03:05:02;39.37;;;27.77;;
7177;SDS011;3630;42.146;24.756;2022-11-15T03:07:37;38.13;;;27.57;;
7177;SDS011;3630;42.146;24.756;2022-11-15T03:10:12;35.33;;;27.87;;
7177;SDS011;3630;42.146;24.756;2022-11-15T03:12:45;36.90;;;26.67;;
7177;SDS011;3630;42.146;24.756;2022-11-15T03:15:18;39.37;;;28.07;;
7177;SDS011;3630;42.146;24.756;2022-11-15T03:17:51;38.97;;;27.37;;
7177;SDS011;3630;42.146;24.756;2022-11-15T03:20:25;40.80;;;27.53;;
7177;SDS011;3630;42.146;24.756;2022-11-15T03:22:54;44.87;;;28.33;;
7177;SDS011;3630;42.146;24.756;2022-11-15T03:25:24;37.50;;;27.43;;
7177;SDS011;3630;42.146;24.756;2022-11-15T03:27:54;40.80;;;27.70;;
7177;SDS011;3630;42.146;24.756;2022-11-15T03:30:23;37.30;;;27.17;;
7177;SDS011;3630;42.146;24.756;2022-11-15T03:32:53;36.33;;;26.27;;
7177;SDS011;3630;42.146;24.756;2022-11-15T03:35:23;38.20;;;30.55;;
7177;SDS011;3630;42.146;24.756;2022-11-15T03:37:52;38.27;;;27.50;;
7177;SDS011;3630;42.146;24.756;2022-11-15T03:40:24;40.20;;;28.70;;
7177;SDS011;3630;42.146;24.756;2022-11-15T03:42:58;35.90;;;26.80;;
7177;SDS011;3630;42.146;24.756;2022-11-15T03:45:31;39.83;;;31.02;;
7177;SDS011;3630;42.146;24.756;2022-11-15T03:48:05;38.07;;;27.77;;
7177;SDS011;3630;42.146;24.756;2022-11-15T03:50:37;37.90;;;27.03;;
7177;SDS011;3630;42.146;24.756;2022-11-15T03:53:04;33.80;;;26.50;;
7177;SDS011;3630;42.146;24.756;2022-11-15T03:55:32;38.03;;;26.77;;
7177;SDS011;3630;42.146;24.756;2022-11-15T03:57:59;36.70;;;26.20;;
7177;SDS011;3630;42.146;24.756;2022-11-15T04:00:27;35.17;;;25.70;;
7177;SDS011;3630;42.146;24.756;2022-11-15T04:02:54;37.23;;;25.40;;
7177;SDS011;3630;42.146;24.756;2022-11-15T04:05:23;35.90;;;25.83;;
7177;SDS011;3630;42.146;24.756;2022-11-15T04:07:50;39.13;;;27.27;;
7177;SDS011;3630;42.146;24.756;2022-11-15T04:10:17;33.97;;;24.77;;
7177;SDS011;3630;42.146;24.756;2022-11-15T04:12:44;37.45;;;29.00;;
7177;SDS011;3630;42.146;24.756;2022-11-15T04:15:13;33.40;;;25.10;;
7177;SDS011;3630;42.146;24.756;2022-11-15T04:17:42;32.57;;;23.30;;
7177;SDS011;3630;42.146;24.756;2022-11-15T04:20:11;29.70;;;22.60;;
7177;SDS011;3630;42.146;24.756;2022-11-15T04:22:58;32.90;;;23.33;;
7177;SDS011;3630;42.146;24.756;2022-11-15T04:25:43;29.03;;;23.33;;
7177;SDS011;3630;42.146;24.756;2022-11-15T04:28:11;30.70;;;22.83;;
7177;SDS011;3630;42.146;24.756;2022-11-15T04:30:38;29.70;;;22.60;;
7177;SDS011;3630;42.146;24.756;2022-11-15T04:33:05;32.37;;;22.17;;
7177;SDS011;3630;42.146;24.756;2022-11-15T04:35:32;31.83;;;22.70;;
7177;SDS011;3630;42.146;24.756;2022-11-15T04:38:00;32.67;;;24.20;;
7177;SDS011;3630;42.146;24.756;2022-11-15T04:40:27;31.67;;;22.77;;
7177;SDS011;3630;42.146;24.756;2022-11-15T04:42:54;32.60;;;24.63;;
7177;SDS011;3630;42.146;24.756;2022-11-15T04:45:21;31.07;;;22.87;;
7177;SDS011;3630;42.146;24.756;2022-11-15T04:47:48;33.37;;;23.43;;
7177;SDS011;3630;42.146;24.756;2022-11-15T04:50:15;31.27;;;22.60;;
7177;SDS011;3630;42.146;24.756;2022-11-15T04:52:43;34.25;;;25.75;;
7177;SDS011;3630;42.146;24.756;2022-11-15T04:55:17;31.47;;;23.43;;
7177;SDS011;3630;42.146;24.756;2022-11-15T04:57:44;31.70;;;24.10;;
7177;SDS011;3630;42.146;24.756;2022-11-15T05:00:11;28.77;;;21.80;;
7177;SDS011;3630;42.146;24.756;2022-11-15T05:02:40;32.70;;;22.27;;
7177;SDS011;3630;42.146;24.756;2022-11-15T05:05:24;29.80;;;21.70;;
7177;SDS011;3630;42.146;24.756;2022-11-15T05:07:51;29.80;;;22.87;;
7177;SDS011;3630;42.146;24.756;2022-11-15T05:10:19;32.60;;;22.23;;
7177;SDS011;3630;42.146;24.756;2022-11-15T05:12:46;28.57;;;20.07;;
7177;SDS011;3630;42.146;24.756;2022-11-15T05:15:13;29.90;;;22.00;;
7177;SDS011;3630;42.146;24.756;2022-11-15T05:17:39;27.40;;;20.47;;
7177;SDS011;3630;42.146;24.756;2022-11-15T05:20:07;28.83;;;20.97;;
7177;SDS011;3630;42.146;24.756;2022-11-15T05:22:35;25.20;;;20.23;;
7177;SDS011;3630;42.146;24.756;2022-11-15T05:25:02;30.23;;;21.70;;
7177;SDS011;3630;42.146;24.756;2022-11-15T05:27:30;31.83;;;21.70;;
7177;SDS011;3630;42.146;24.756;2022-11-15T05:29:57;26.13;;;20.43;;
7177;SDS011;3630;42.146;24.756;2022-11-15T05:32:24;27.30;;;21.17;;
7177;SDS011;3630;42.146;24.756;2022-11-15T05:34:51;26.90;;;21.13;;
7177;SDS011;3630;42.146;24.756;2022-11-15T05:37:18;32.50;;;24.50;;
7177;SDS011;3630;42.146;24.756;2022-11-15T05:39:45;43.63;;;24.50;;
7177;SDS011;3630;42.146;24.756;2022-11-15T05:42:12;32.03;;;24.33;;
7177;SDS011;3630;42.146;24.756;2022-11-15T05:44:43;31.50;;;23.37;;
7177;SDS011;3630;42.146;24.756;2022-11-15T05:47:13;27.33;;;21.13;;
7177;SDS011;3630;42.146;24.756;2022-11-15T05:49:43;27.37;;;20.17;;
7177;SDS011;3630;42.146;24.756;2022-11-15T05:52:13;28.53;;;21.57;;
7177;SDS011;3630;42.146;24.756;2022-11-15T05:54:42;42.60;;;30.97;;
7177;SDS011;3630;42.146;24.756;2022-11-15T05:57:10;30.47;;;22.07;;
7177;SDS011;3630;42.146;24.756;2022-11-15T05:59:37;35.17;;;23.17;;
7177;SDS011;3630;42.146;24.756;2022-11-15T06:02:07;29.90;;;21.70;;
7177;SDS011;3630;42.146;24.756;2022-11-15T06:04:34;29.63;;;21.10;;
7177;SDS011;3630;42.146;24.756;2022-11-15T06:07:00;32.40;;;22.27;;
7177;SDS011;3630;42.146;24.756;2022-11-15T06:09:27;32.03;;;23.13;;
7177;SDS011;3630;42.146;24.756;2022-11-15T06:11:54;29.70;;;22.60;;
7177;SDS011;3630;42.146;24.756;2022-11-15T06:14:21;33.63;;;22.20;;
7177;SDS011;3630;42.146;24.756;2022-11-15T06:16:48;36.10;;;23.73;;
7177;SDS011;3630;42.146;24.756;2022-11-15T06:19:16;29.73;;;22.90;;
7177;SDS011;3630;42.146;24.756;2022-11-15T06:21:43;30.37;;;22.60;;
7177;SDS011;3630;42.146;24.756;2022-11-15T06:24:09;32.77;;;21.20;;
7177;SDS011;3630;42.146;24.756;2022-11-15T06:26:36;29.85;;;24.85;;
7177;SDS011;3630;42.146;24.756;2022-11-15T06:29:03;27.93;;;20.67;;
7177;SDS011;3630;42.146;24.756;2022-11-15T06:31:30;30.93;;;22.00;;
7177;SDS011;3630;42.146;24.756;2022-11-15T06:33:57;61.17;;;23.40;;
7177;SDS011;3630;42.146;24.756;2022-11-15T06:36:25;32.53;;;20.40;;
7177;SDS011;3630;42.146;24.756;2022-11-15T06:38:52;28.07;;;20.20;;
7177;SDS011;3630;42.146;24.756;2022-11-15T06:41:19;28.23;;;20.07;;
7177;SDS011;3630;42.146;24.756;2022-11-15T06:43:46;30.20;;;22.17;;
7177;SDS011;3630;42.146;24.756;2022-11-15T06:46:13;32.83;;;21.47;;
7177;SDS011;3630;42.146;24.756;2022-11-15T06:48:40;25.60;;;20.57;;
7177;SDS011;3630;42.146;24.756;2022-11-15T06:51:06;30.17;;;21.93;;
7177;SDS011;3630;42.146;24.756;2022-11-15T06:53:35;25.07;;;19.60;;
7177;SDS011;3630;42.146;24.756;2022-11-15T06:56:01;27.23;;;20.40;;
7177;SDS011;3630;42.146;24.756;2022-11-15T06:58:30;27.67;;;20.70;;
7177;SDS011;3630;42.146;24.756;2022-11-15T07:00:59;29.47;;;19.93;;
7177;SDS011;3630;42.146;24.756;2022-11-15T07:03:27;25.23;;;19.57;;
7177;SDS011;3630;42.146;24.756;2022-11-15T07:05:54;29.10;;;18.50;;
7177;SDS011;3630;42.146;24.756;2022-11-15T07:08:22;29.47;;;19.37;;
7177;SDS011;3630;42.146;24.756;2022-11-15T07:10:51;22.10;;;16.30;;
7177;SDS011;3630;42.146;24.756;2022-11-15T07:13:18;28.57;;;18.10;;
7177;SDS011;3630;42.146;24.756;2022-11-15T07:15:45;23.40;;;17.73;;
7177;SDS011;3630;42.146;24.756;2022-11-15T07:18:12;30.60;;;17.93;;
7177;SDS011;3630;42.146;24.756;2022-11-15T07:20:38;23.63;;;17.77;;
7177;SDS011;3630;42.146;24.756;2022-11-15T07:23:05;28.20;;;19.80;;
7177;SDS011;3630;42.146;24.756;2022-11-15T07:25:32;27.33;;;18.93;;
7177;SDS011;3630;42.146;24.756;2022-11-15T07:28:01;28.00;;;17.60;;
7177;SDS011;3630;42.146;24.756;2022-11-15T07:30:28;27.17;;;18.70;;
7177;SDS011;3630;42.146;24.756;2022-11-15T07:33:00;26.20;;;18.97;;
7177;SDS011;3630;42.146;24.756;2022-11-15T07:35:28;25.33;;;17.63;;
7177;SDS011;3630;42.146;24.756;2022-11-15T07:37:56;23.67;;;18.07;;
7177;SDS011;3630;42.146;24.756;2022-11-15T07:40:24;21.87;;;16.90;;
7177;SDS011;3630;42.146;24.756;2022-11-15T07:42:52;26.33;;;17.13;;
7177;SDS011;3630;42.146;24.756;2022-11-15T07:45:25;24.10;;;17.23;;
7177;SDS011;3630;42.146;24.756;2022-11-15T07:47:52;23.37;;;17.77;;
7177;SDS011;3630;42.146;24.756;2022-11-15T07:50:21;25.37;;;17.80;;
7177;SDS011;3630;42.146;24.756;2022-11-15T07:52:52;22.50;;;17.63;;
7177;SDS011;3630;42.146;24.756;2022-11-15T07:55:20;27.93;;;17.93;;
7177;SDS011;3630;42.146;24.756;2022-11-15T07:57:47;23.87;;;17.17;;
7177;SDS011;3630;42.146;24.756;2022-11-15T08:00:14;24.97;;;18.27;;
7177;SDS011;3630;42.146;24.756;2022-11-15T08:02:43;23.67;;;18.83;;
7177;SDS011;3630;42.146;24.756;2022-11-15T08:05:10;28.80;;;20.70;;
7177;SDS011;3630;42.146;24.756;2022-11-15T08:07:36;24.90;;;19.20;;
7177;SDS011;3630;42.146;24.756;2022-11-15T08:10:05;28.57;;;18.97;;
7177;SDS011;3630;42.146;24.756;2022-11-15T08:12:33;27.63;;;21.17;;
7177;SDS011;3630;42.146;24.756;2022-11-15T08:15:00;31.50;;;20.67;;
7177;SDS011;3630;42.146;24.756;2022-11-15T08:17:27;31.33;;;20.73;;
7177;SDS011;3630;42.146;24.756;2022-11-15T08:19:58;32.93;;;20.77;;
7177;SDS011;3630;42.146;24.756;2022-11-15T08:22:25;25.93;;;20.33;;
7177;SDS011;3630;42.146;24.756;2022-11-15T08:24:52;28.57;;;20.57;;
7177;SDS011;3630;42.146;24.756;2022-11-15T08:27:19;30.17;;;21.30;;
7177;SDS011;3630;42.146;24.756;2022-11-15T08:29:46;28.87;;;20.77;;
7177;SDS011;3630;42.146;24.756;2022-11-15T08:32:14;32.23;;;20.37;;
7177;SDS011;3630;42.146;24.756;2022-11-15T08:34:42;33.43;;;22.10;;
7177;SDS011;3630;42.146;24.756;2022-11-15T08:37:11;29.80;;;21.50;;
7177;SDS011;3630;42.146;24.756;2022-11-15T08:39:37;30.77;;;23.03;;
7177;SDS011;3630;42.146;24.756;2022-11-15T08:42:04;35.90;;;23.97;;
7177;SDS011;3630;42.146;24.756;2022-11-15T08:44:31;32.30;;;23.43;;
7177;SDS011;3630;42.146;24.756;2022-11-15T08:46:58;33.37;;;24.03;;
7177;SDS011;3630;42.146;24.756;2022-11-15T08:49:24;33.47;;;22.93;;
7177;SDS011;3630;42.146;24.756;2022-11-15T08:51:51;36.63;;;25.10;;
7177;SDS011;3630;42.146;24.756;2022-11-15T08:54:19;31.80;;;23.83;;
7177;SDS011;3630;42.146;24.756;2022-11-15T08:56:46;38.13;;;24.37;;
7177;SDS011;3630;42.146;24.756;2022-11-15T08:59:13;33.20;;;25.52;;
7177;SDS011;3630;42.146;24.756;2022-11-15T09:01:40;41.53;;;25.00;;
7177;SDS011;3630;42.146;24.756;2022-11-15T09:04:07;36.40;;;24.63;;
7177;SDS011;3630;42.146;24.756;2022-11-15T09:06:34;35.23;;;25.43;;
7177;SDS011;3630;42.146;24.756;2022-11-15T09:09:01;35.77;;;24.13;;
7177;SDS011;3630;42.146;24.756;2022-11-15T09:11:31;35.70;;;29.27;;
7177;SDS011;3630;42.146;24.756;2022-11-15T09:13:57;34.77;;;26.37;;
7177;SDS011;3630;42.146;24.756;2022-11-15T09:16:24;38.87;;;26.13;;
7177;SDS011;3630;42.146;24.756;2022-11-15T09:18:52;34.40;;;25.73;;
7177;SDS011;3630;42.146;24.756;2022-11-15T09:21:18;40.60;;;27.03;;
7177;SDS011;3630;42.146;24.756;2022-11-15T09:23:45;36.53;;;27.57;;
7177;SDS011;3630;42.146;24.756;2022-11-15T09:26:12;38.43;;;27.50;;
7177;SDS011;3630;42.146;24.756;2022-11-15T09:28:40;36.97;;;28.60;;
7177;SDS011;3630;42.146;24.756;2022-11-15T09:31:08;39.53;;;28.37;;
7177;SDS011;3630;42.146;24.756;2022-11-15T09:33:35;40.40;;;28.90;;
7177;SDS011;3630;42.146;24.756;2022-11-15T09:36:02;37.67;;;27.60;;
7177;SDS011;3630;42.146;24.756;2022-11-15T09:38:31;39.27;;;28.50;;
7177;SDS011;3630;42.146;24.756;2022-11-15T09:41:08;39.97;;;29.07;;
7177;SDS011;3630;42.146;24.756;2022-11-15T09:43:53;41.20;;;33.38;;
7177;SDS011;3630;42.146;24.756;2022-11-15T09:46:32;42.70;;;30.43;;
7177;SDS011;3630;42.146;24.756;2022-11-15T09:49:09;38.87;;;30.50;;
7177;SDS011;3630;42.146;24.756;2022-11-15T09:51:40;48.03;;;33.03;;
7177;SDS011;3630;42.146;24.756;2022-11-15T09:54:15;41.67;;;31.13;;
7177;SDS011;3630;42.146;24.756;2022-11-15T09:56:48;45.30;;;32.43;;
7177;SDS011;3630;42.146;24.756;2022-11-15T09:59:30;46.00;;;30.90;;
7177;SDS011;3630;42.146;24.756;2022-11-15T10:02:20;40.00;;;29.37;;
7177;SDS011;3630;42.146;24.756;2022-11-15T10:04:59;38.57;;;29.03;;
7177;SDS011;3630;42.146;24.756;2022-11-15T10:07:29;39.67;;;28.43;;
7177;SDS011;3630;42.146;24.756;2022-11-15T10:10:03;37.77;;;27.90;;
7177;SDS011;3630;42.146;24.756;2022-11-15T10:12:38;44.07;;;28.70;;
7177;SDS011;3630;42.146;24.756;2022-11-15T10:15:11;39.03;;;27.77;;
7177;SDS011;3630;42.146;24.756;2022-11-15T10:17:46;39.23;;;27.97;;
7177;SDS011;3630;42.146;24.756;2022-11-15T10:20:26;40.53;;;30.90;;
7177;SDS011;3630;42.146;24.756;2022-11-15T10:22:55;39.00;;;27.23;;
7177;SDS011;3630;42.146;24.756;2022-11-15T10:25:25;34.77;;;26.17;;
7177;SDS011;3630;42.146;24.756;2022-11-15T10:27:54;36.80;;;28.40;;
7177;SDS011;3630;42.146;24.756;2022-11-15T10:30:29;36.10;;;26.50;;
7177;SDS011;3630;42.146;24.756;2022-11-15T10:32:58;34.03;;;27.40;;
7177;SDS011;3630;42.146;24.756;2022-11-15T10:35:36;37.20;;;24.97;;
7177;SDS011;3630;42.146;24.756;2022-11-15T10:38:06;32.20;;;24.10;;
7177;SDS011;3630;42.146;24.756;2022-11-15T10:40:35;32.57;;;25.93;;
7177;SDS011;3630;42.146;24.756;2022-11-15T10:43:12;41.63;;;27.50;;
7177;SDS011;3630;42.146;24.756;2022-11-15T10:45:42;34.30;;;27.02;;
7177;SDS011;3630;42.146;24.756;2022-11-15T10:48:20;32.80;;;25.37;;
7177;SDS011;3630;42.146;24.756;2022-11-15T10:50:49;33.83;;;24.97;;
7177;SDS011;3630;42.146;24.756;2022-11-15T10:53:20;35.80;;;26.33;;
7177;SDS011;3630;42.146;24.756;2022-11-15T10:55:50;35.97;;;27.90;;
7177;SDS011;3630;42.146;24.756;2022-11-15T10:58:20;37.70;;;29.95;;
7177;SDS011;3630;42.146;24.756;2022-11-15T11:00:55;35.20;;;28.07;;
7177;SDS011;3630;42.146;24.756;2022-11-15T11:03:34;34.63;;;25.80;;
7177;SDS011;3630;42.146;24.756;2022-11-15T11:06:03;33.43;;;27.33;;
7177;SDS011;3630;42.146;24.756;2022-11-15T11:08:33;39.43;;;29.93;;
7177;SDS011;3630;42.146;24.756;2022-11-15T11:11:00;39.97;;;29.43;;
7177;SDS011;3630;42.146;24.756;2022-11-15T11:13:29;38.30;;;28.20;;
7177;SDS011;3630;42.146;24.756;2022-11-15T11:16:02;37.10;;;28.20;;
7177;SDS011;3630;42.146;24.756;2022-11-15T11:18:43;39.83;;;31.20;;
7177;SDS011;3630;42.146;24.756;2022-11-15T11:21:17;41.93;;;30.43;;
7177;SDS011;3630;42.146;24.756;2022-11-15T11:23:51;39.33;;;28.63;;
7177;SDS011;3630;42.146;24.756;2022-11-15T11:26:31;42.57;;;29.10;;
7177;SDS011;3630;42.146;24.756;2022-11-15T11:29:14;37.97;;;28.03;;
7177;SDS011;3630;42.146;24.756;2022-11-15T11:31:52;35.83;;;27.43;;
7177;SDS011;3630;42.146;24.756;2022-11-15T11:34:29;40.00;;;29.90;;
7177;SDS011;3630;42.146;24.756;2022-11-15T11:37:09;42.03;;;29.93;;
7177;SDS011;3630;42.146;24.756;2022-11-15T11:39:42;32.70;;;26.80;;
7177;SDS011;3630;42.146;24.756;2022-11-15T11:42:23;38.37;;;28.80;;
7177;SDS011;3630;42.146;24.756;2022-11-15T11:45:02;42.00;;;30.10;;
7177;SDS011;3630;42.146;24.756;2022-11-15T11:47:46;38.07;;;28.97;;
7177;SDS011;3630;42.146;24.756;2022-11-15T11:50:15;44.75;;;34.53;;
7177;SDS011;3630;42.146;24.756;2022-11-15T11:52:49;40.30;;;30.07;;
7177;SDS011;3630;42.146;24.756;2022-11-15T11:55:24;37.07;;;28.20;;
7177;SDS011;3630;42.146;24.756;2022-11-15T11:57:57;36.87;;;27.23;;
7177;SDS011;3630;42.146;24.756;2022-11-15T12:00:29;36.70;;;28.07;;
7177;SDS011;3630;42.146;24.756;2022-11-15T12:03:05;36.13;;;27.77;;
7177;SDS011;3630;42.146;24.756;2022-11-15T12:05:39;34.93;;;25.37;;
7177;SDS011;3630;42.146;24.756;2022-11-15T12:08:22;45.47;;;29.87;;
7177;SDS011;3630;42.146;24.756;2022-11-15T12:10:57;37.33;;;29.57;;
7177;SDS011;3630;42.146;24.756;2022-11-15T12:13:30;34.27;;;27.43;;
7177;SDS011;3630;42.146;24.756;2022-11-15T12:16:02;35.03;;;27.33;;
7177;SDS011;3630;42.146;24.756;2022-11-15T12:18:36;30.93;;;24.73;;
7177;SDS011;3630;42.146;24.756;2022-11-15T12:21:04;33.38;;;27.15;;
7177;SDS011;3630;42.146;24.756;2022-11-15T12:23:37;34.93;;;26.00;;
7177;SDS011;3630;42.146;24.756;2022-11-15T12:26:08;33.70;;;27.20;;
7177;SDS011;3630;42.146;24.756;2022-11-15T12:28:37;36.57;;;27.73;;
7177;SDS011;3630;42.146;24.756;2022-11-15T12:31:10;37.30;;;27.50;;
7177;SDS011;3630;42.146;24.756;2022-11-15T12:33:44;35.13;;;27.57;;
7177;SDS011;3630;42.146;24.756;2022-11-15T12:36:29;35.60;;;28.50;;
7177;SDS011;3630;42.146;24.756;2022-11-15T12:39:00;39.87;;;29.20;;
7177;SDS011;3630;42.146;24.756;2022-11-15T12:41:29;35.33;;;26.17;;
7177;SDS011;3630;42.146;24.756;2022-11-15T12:43:58;35.03;;;25.57;;
7177;SDS011;3630;42.146;24.756;2022-11-15T12:49:43;33.83;;;26.77;;
7177;SDS011;3630;42.146;24.756;2022-11-15T12:52:11;37.97;;;28.63;;
7177;SDS011;3630;42.146;24.756;2022-11-15T12:54:57;36.40;;;27.73;;
7177;SDS011;3630;42.146;24.756;2022-11-15T12:57:32;35.03;;;26.40;;
7177;SDS011;3630;42.146;24.756;2022-11-15T13:03:23;33.37;;;27.20;;
7177;SDS011;3630;42.146;24.756;2022-11-15T13:06:06;41.50;;;26.63;;
7177;SDS011;3630;42.146;24.756;2022-11-15T13:09:02;38.67;;;27.63;;
7177;SDS011;3630;42.146;24.756;2022-11-15T13:11:46;39.70;;;28.13;;
7177;SDS011;3630;42.146;24.756;2022-11-15T13:38:04;34.47;;;28.53;;
7177;SDS011;3630;42.146;24.756;2022-11-15T13:40:34;35.57;;;28.60;;
7177;SDS011;3630;42.146;24.756;2022-11-15T13:43:15;34.40;;;28.57;;
7177;SDS011;3630;42.146;24.756;2022-11-15T13:46:03;40.50;;;30.93;;
7177;SDS011;3630;42.146;24.756;2022-11-15T13:48:34;39.50;;;31.30;;
7177;SDS011;3630;42.146;24.756;2022-11-15T13:51:01;40.60;;;32.70;;
7177;SDS011;3630;42.146;24.756;2022-11-15T13:53:31;41.33;;;30.47;;
7177;SDS011;3630;42.146;24.756;2022-11-15T13:55:59;41.93;;;33.00;;
7177;SDS011;3630;42.146;24.756;2022-11-15T13:58:28;40.87;;;32.10;;
7177;SDS011;3630;42.146;24.756;2022-11-15T14:00:59;40.67;;;31.13;;
7177;SDS011;3630;42.146;24.756;2022-11-15T14:03:28;57.47;;;41.17;;
7177;SDS011;3630;42.146;24.756;2022-11-15T14:06:03;43.77;;;33.13;;
7177;SDS011;3630;42.146;24.756;2022-11-15T14:08:34;41.97;;;30.80;;
7177;SDS011;3630;42.146;24.756;2022-11-15T14:11:15;47.10;;;35.57;;
7177;SDS011;3630;42.146;24.756;2022-11-15T14:16:34;40.40;;;32.13;;
7177;SDS011;3630;42.146;24.756;2022-11-15T14:19:03;43.07;;;31.30;;
7177;SDS011;3630;42.146;24.756;2022-11-15T14:21:31;42.77;;;33.97;;
7177;SDS011;3630;42.146;24.756;2022-11-15T14:26:52;45.83;;;34.53;;
7177;SDS011;3630;42.146;24.756;2022-11-15T14:29:22;48.67;;;36.00;;
7177;SDS011;3630;42.146;24.756;2022-11-15T14:31:49;57.80;;;36.80;;
7177;SDS011;3630;42.146;24.756;2022-11-15T14:34:16;54.15;;;36.65;;
7177;SDS011;3630;42.146;24.756;2022-11-15T14:36:43;48.00;;;33.73;;
7177;SDS011;3630;42.146;24.756;2022-11-15T14:39:10;44.93;;;34.43;;
7177;SDS011;3630;42.146;24.756;2022-11-15T14:41:37;42.10;;;33.67;;
7177;SDS011;3630;42.146;24.756;2022-11-15T14:44:05;48.70;;;32.63;;
7177;SDS011;3630;42.146;24.756;2022-11-15T14:46:32;45.63;;;33.67;;
7177;SDS011;3630;42.146;24.756;2022-11-15T14:48:59;46.07;;;34.53;;
7177;SDS011;3630;42.146;24.756;2022-11-15T14:51:26;53.33;;;36.77;;
7177;SDS011;3630;42.146;24.756;2022-11-15T14:53:53;49.70;;;36.57;;
7177;SDS011;3630;42.146;24.756;2022-11-15T14:56:20;48.47;;;34.73;;
7177;SDS011;3630;42.146;24.756;2022-11-15T14:58:47;49.03;;;35.13;;
7177;SDS011;3630;42.146;24.756;2022-11-15T15:01:16;50.67;;;35.83;;
7177;SDS011;3630;42.146;24.756;2022-11-15T15:03:46;45.23;;;33.80;;
7177;SDS011;3630;42.146;24.756;2022-11-15T15:06:13;53.40;;;33.97;;
7177;SDS011;3630;42.146;24.756;2022-11-15T15:08:40;47.73;;;36.60;;
7177;SDS011;3630;42.146;24.756;2022-11-15T15:11:07;57.67;;;41.25;;
7177;SDS011;3630;42.146;24.756;2022-11-15T15:13:37;49.30;;;36.10;;
7177;SDS011;3630;42.146;24.756;2022-11-15T15:16:04;56.07;;;37.10;;
7177;SDS011;3630;42.146;24.756;2022-11-15T15:18:32;49.93;;;36.20;;
7177;SDS011;3630;42.146;24.756;2022-11-15T15:21:00;51.80;;;36.07;;
7177;SDS011;3630;42.146;24.756;2022-11-15T15:23:28;48.87;;;37.27;;
7177;SDS011;3630;42.146;24.756;2022-11-15T15:25:56;49.17;;;36.23;;
7177;SDS011;3630;42.146;24.756;2022-11-15T15:28:23;55.53;;;37.47;;
7177;SDS011;3630;42.146;24.756;2022-11-15T15:30:50;52.17;;;36.80;;